Aviation Digital Data Service (ADDS)

Output produced by METARs form (1629 UTC 23 January 2019)
found at http://www.aviationweather.gov/metar/data/
 
METAR text: VOPB 220600Z 05010KT 6000 M/CLEAR FEW012 FEW220 30/23 Q1013 NOSIG
Conditions at: VOPB (PORT BLAIR , IN) observed 0600 UTC 22 January 2019
Temperature: 30.0°C (86°F)
Dewpoint: 23.0°C (73°F) [RH = 66%]
Pressure (altimeter): 29.91 inches Hg (1013.0 mb)
Winds: from the NE (50 degrees) at 12 MPH (10 knots; 5.1 m/s)
Visibility: 4 miles ( 6 km)
Ceiling: at least 12,000 feet AGL
Clouds: few clouds at 1200 feet AGL
few clouds at 22000 feet AGL
Weather: no significant weather observed at this time

METAR text: VOPB 220530Z 05009KT 6000 M/CLEAR FEW012 FEW220 30/23 Q1013 NOSIG
Conditions at: VOPB (PORT BLAIR , IN) observed 0530 UTC 22 January 2019
Temperature: 30.0°C (86°F)
Dewpoint: 23.0°C (73°F) [RH = 66%]
Pressure (altimeter): 29.91 inches Hg (1013.0 mb)
Winds: from the NE (50 degrees) at 10 MPH (9 knots; 4.6 m/s)
Visibility: 4 miles ( 6 km)
Ceiling: at least 12,000 feet AGL
Clouds: few clouds at 1200 feet AGL
few clouds at 22000 feet AGL
Weather: no significant weather observed at this time